Time;durP1;ratioP1;P1;durP2;ratioP2;P2;SDS_P1;SDS_P2;PMS_P1;PMS_P2;Temp;Humidity;BMP_temperature;BMP_pressure;BME280_temperature;BME280_humidity;BME280_pressure;Samples;Min_cycle;Max_cycle;Signal;HPM_P1;HPM_P2
2022/01/07 00:01:11;;;;;;;10.40;3.10;;;;;;;-0.98;98.06;100809.53;10499909;28;20294;-68
2022/01/07 00:06:15;;;;;;;9.23;4.03;;;;;;;-1.06;98.35;100808.31;10500103;28;20381;-69
2022/01/07 00:11:18;;;;;;;8.53;3.43;;;;;;;-1.29;100.00;100814.94;10500059;28;20219;-69
2022/01/07 00:16:28;;;;;;;13.20;4.33;;;;;;;-1.41;100.00;100820.38;10500003;28;20224;-67
2022/01/07 00:21:31;;;;;;;10.03;3.87;;;;;;;-1.22;100.00;100809.31;10488848;28;20220;-70
2022/01/07 00:26:35;;;;;;;11.30;4.00;;;;;;;-1.21;100.00;100811.06;10499735;28;20692;-65
2022/01/07 00:31:39;;;;;;;13.63;4.33;;;;;;;-1.20;100.00;100815.34;10499704;28;20312;-71
2022/01/07 00:36:43;;;;;;;8.97;3.43;;;;;;;-1.16;100.00;100819.78;10499649;28;20240;-67
2022/01/07 00:41:46;;;;;;;9.53;3.60;;;;;;;-1.00;100.00;100837.44;10499506;28;20212;-70
2022/01/07 00:46:51;;;;;;;13.10;4.13;;;;;;;-1.13;100.00;100827.53;10499230;28;20220;-67
2022/01/07 00:51:54;;;;;;;11.20;4.20;;;;;;;-1.18;100.00;100844.28;10500765;28;20669;-67
2022/01/07 00:56:57;;;;;;;11.90;3.53;;;;;;;-1.29;100.00;100846.38;10506395;28;20227;-68
2022/01/07 01:02:02;;;;;;;9.80;3.80;;;;;;;-1.29;100.00;100840.41;10505989;28;20216;-69
2022/01/07 01:07:17;;;;;;;9.27;3.73;;;;;;;-1.21;100.00;100847.56;10505988;28;20227;-67
2022/01/07 01:12:20;;;;;;;10.17;3.60;;;;;;;-1.22;100.00;100847.50;10505837;28;20223;-69
2022/01/07 01:17:25;;;;;;;8.53;3.30;;;;;;;-1.43;100.00;100846.53;10506013;28;20227;-67
2022/01/07 01:22:28;;;;;;;12.30;4.40;;;;;;;-1.39;100.00;100844.22;10505806;28;20216;-67
2022/01/07 01:27:31;;;;;;;11.10;4.60;;;;;;;-1.40;100.00;100833.97;10505057;28;20220;-66
2022/01/07 01:32:36;;;;;;;11.23;3.93;;;;;;;-1.33;100.00;100838.53;10505119;28;20557;-66
2022/01/07 01:37:40;;;;;;;13.77;5.87;;;;;;;-1.57;100.00;100843.38;10505051;28;20228;-66
2022/01/07 01:42:43;;;;;;;12.17;4.10;;;;;;;-1.57;100.00;100842.53;10504855;28;20307;-68
2022/01/07 01:47:48;;;;;;;12.63;4.27;;;;;;;-1.48;100.00;100843.78;10504456;28;20556;-69
2022/01/07 01:52:54;;;;;;;10.60;3.73;;;;;;;-1.59;100.00;100859.38;10505024;28;20232;-71
2022/01/07 01:57:58;;;;;;;14.33;4.50;;;;;;;-1.75;100.00;100856.94;10503986;28;20274;-68
2022/01/07 02:03:03;;;;;;;14.60;5.00;;;;;;;-1.64;100.00;100865.94;10503445;28;20319;-69
2022/01/07 02:08:06;;;;;;;17.30;4.60;;;;;;;-1.54;100.00;100874.06;10503583;28;20307;-67
2022/01/07 02:13:10;;;;;;;12.23;4.27;;;;;;;-1.71;100.00;100869.00;10503710;28;20220;-68
2022/01/07 02:18:17;;;;;;;11.80;4.80;;;;;;;-1.62;100.00;100872.81;10503322;28;20242;-66
2022/01/07 02:23:22;;;;;;;13.03;4.53;;;;;;;-1.66;100.00;100882.81;10502914;28;20248;-69
2022/01/07 02:28:27;;;;;;;9.77;4.20;;;;;;;-1.85;100.00;100887.81;10502920;28;20669;-67
2022/01/07 02:33:31;;;;;;;11.03;4.37;;;;;;;-1.62;100.00;100883.00;10502541;28;20238;-70
2022/01/07 02:38:37;;;;;;;11.97;4.27;;;;;;;-1.54;100.00;100881.72;10502388;28;20599;-67
2022/01/07 02:43:40;;;;;;;11.83;4.03;;;;;;;-1.65;100.00;100882.88;10502563;28;20544;-66
2022/01/07 02:48:43;;;;;;;12.40;4.07;;;;;;;-1.55;100.00;100891.78;10502063;28;20534;-67
2022/01/07 02:53:48;;;;;;;10.80;3.90;;;;;;;-1.63;100.00;100895.66;10501729;28;20230;-69
2022/01/07 02:58:51;;;;;;;9.97;3.40;;;;;;;-1.49;100.00;100887.00;10501928;28;20230;-69
2022/01/07 03:03:54;;;;;;;11.87;4.07;;;;;;;-1.54;100.00;100885.91;10501519;28;20239;-67
2022/01/07 03:09:00;;;;;;;9.60;3.33;;;;;;;-1.75;100.00;100893.41;10501576;28;20224;-67
2022/01/07 03:14:03;;;;;;;11.93;3.90;;;;;;;-1.78;100.00;100895.81;10501138;28;20682;-70
2022/01/07 03:19:07;;;;;;;11.77;3.63;;;;;;;-1.68;100.00;100907.28;10501183;28;20216;-68
2022/01/07 03:24:12;;;;;;;14.73;6.27;;;;;;;-1.79;100.00;100905.91;10501132;28;20560;-67
2022/01/07 03:29:15;;;;;;;9.20;3.63;;;;;;;-1.80;100.00;100899.97;10501217;28;20219;-66
2022/01/07 03:34:19;;;;;;;10.93;3.67;;;;;;;-1.98;100.00;100908.38;10500624;28;20228;-68
2022/01/07 03:39:24;;;;;;;12.23;3.60;;;;;;;-1.92;100.00;100911.22;10501226;28;20216;-71
2022/01/07 03:44:27;;;;;;;10.30;3.93;;;;;;;-2.03;100.00;100907.28;10501223;28;20216;-70
2022/01/07 03:49:31;;;;;;;10.83;3.90;;;;;;;-1.80;100.00;100910.13;10500382;28;20627;-70
2022/01/07 03:54:36;;;;;;;15.43;4.87;;;;;;;-1.82;100.00;100911.72;10500515;28;20733;-66
2022/01/07 03:59:39;;;;;;;9.40;4.17;;;;;;;-1.90;100.00;100917.25;10500259;28;20212;-68
2022/01/07 04:04:43;;;;;;;10.93;3.83;;;;;;;-1.93;100.00;100920.50;10499949;28;20300;-66
2022/01/07 04:09:48;;;;;;;17.40;4.77;;;;;;;-1.82;100.00;100916.81;10500249;28;20678;-67
2022/01/07 04:15:02;;;;;;;9.83;3.83;;;;;;;-1.85;100.00;100920.88;10500553;28;20560;-68
2022/01/07 04:20:07;;;;;;;11.60;4.40;;;;;;;-1.61;100.00;100919.50;10500141;28;20226;-68
2022/01/07 04:25:17;;;;;;;9.37;4.27;;;;;;;-1.94;100.00;100923.88;10499893;28;20234;-70
2022/01/07 04:30:22;;;;;;;12.67;5.17;;;;;;;-2.10;100.00;100923.03;10506922;28;20222;-68
2022/01/07 04:35:26;;;;;;;13.07;4.53;;;;;;;-2.05;100.00;100908.91;10507461;28;20223;-69
2022/01/07 04:40:31;;;;;;;15.10;4.53;;;;;;;-2.05;100.00;100897.03;10507318;28;20212;-70
2022/01/07 04:45:36;;;;;;;11.80;4.87;;;;;;;-2.27;100.00;100909.50;10506937;28;20220;-69
2022/01/07 04:50:39;;;;;;;11.17;3.77;;;;;;;-2.20;100.00;100905.59;10506664;28;20222;-68
2022/01/07 04:55:44;;;;;;;20.83;8.27;;;;;;;-2.35;100.00;100904.03;10506613;28;20653;-69
2022/01/07 05:00:48;;;;;;;11.50;4.27;;;;;;;-2.33;100.00;100905.78;10506559;28;20303;-69
2022/01/07 05:06:02;;;;;;;12.83;4.83;;;;;;;-2.31;100.00;100901.66;10505982;28;20309;-68
2022/01/07 05:11:06;;;;;;;9.83;3.73;;;;;;;-2.37;100.00;100898.03;10506040;28;20332;-67
2022/01/07 05:16:10;;;;;;;12.73;4.30;;;;;;;-2.32;100.00;100895.69;10505855;28;20224;-68
2022/01/07 05:21:13;;;;;;;14.43;4.73;;;;;;;-2.43;100.00;100891.75;10505848;28;20220;-67
2022/01/07 05:26:18;;;;;;;13.93;4.43;;;;;;;-2.29;100.00;100885.69;10506320;28;20230;-67
2022/01/07 05:31:23;;;;;;;9.97;3.40;;;;;;;-2.25;100.00;100874.00;10505589;28;20299;-67
2022/01/07 05:36:26;;;;;;;11.97;4.20;;;;;;;-2.33;100.00;100876.19;10505265;28;20224;-68
2022/01/07 05:41:31;;;;;;;13.27;5.30;;;;;;;-2.29;100.00;100884.78;10503983;28;20645;-72
2022/01/07 05:46:34;;;;;;;12.60;5.93;;;;;;;-2.39;100.00;100884.38;10505167;28;20303;-70
2022/01/07 05:51:38;;;;;;;11.97;4.23;;;;;;;-2.43;100.00;100887.53;10505016;28;20197;-67
2022/01/07 05:56:42;;;;;;;12.27;4.97;;;;;;;-2.45;100.00;100894.22;10504296;28;20534;-69
2022/01/07 06:01:46;;;;;;;21.90;9.20;;;;;;;-2.60;100.00;100895.13;10504151;28;20619;-68
2022/01/07 06:06:49;;;;;;;15.77;4.07;;;;;;;-2.53;100.00;100905.66;10503572;28;20638;-65
2022/01/07 06:11:54;;;;;;;14.73;5.47;;;;;;;-2.52;100.00;100904.00;10503829;28;20693;-67
2022/01/07 06:16:57;;;;;;;14.83;5.00;;;;;;;-2.66;100.00;100907.53;10503309;28;20215;-66
2022/01/07 06:22:01;;;;;;;31.10;11.30;;;;;;;-2.62;100.00;100920.44;10503634;28;20630;-69
2022/01/07 06:27:06;;;;;;;19.47;6.80;;;;;;;-2.63;100.00;100918.72;10503258;28;20196;-67
2022/01/07 06:32:09;;;;;;;15.00;4.70;;;;;;;-2.64;100.00;100922.03;10503651;28;20561;-69
2022/01/07 06:37:13;;;;;;;38.37;16.20;;;;;;;-2.68;100.00;100909.97;10502596;28;20276;-67
2022/01/07 06:42:17;;;;;;;13.33;5.10;;;;;;;-2.59;100.00;100909.56;10502485;28;20214;-68
2022/01/07 06:47:20;;;;;;;13.00;4.13;;;;;;;-2.55;100.00;100914.00;10501578;28;20260;-69
2022/01/07 06:52:24;;;;;;;17.47;5.30;;;;;;;-2.60;100.00;100915.44;10501938;28;20522;-74
2022/01/07 06:57:28;;;;;;;12.23;4.97;;;;;;;-2.64;100.00;100926.25;10502541;28;20215;-68
2022/01/07 07:02:32;;;;;;;12.20;4.83;;;;;;;-2.68;100.00;100935.38;10501998;28;20311;-67
2022/01/07 07:07:35;;;;;;;13.13;4.97;;;;;;;-2.55;100.00;100934.31;10501581;28;20199;-67
2022/01/07 07:12:39;;;;;;;10.30;4.37;;;;;;;-2.55;100.00;100932.66;10501545;28;20209;-66
2022/01/07 07:17:45;;;;;;;10.70;4.17;;;;;;;-2.53;100.00;100927.66;10501439;28;20223;-68
2022/01/07 07:22:48;;;;;;;14.80;4.60;;;;;;;-2.54;100.00;100934.38;10501638;28;20644;-67
2022/01/07 07:27:53;;;;;;;11.50;4.57;;;;;;;-2.56;100.00;100930.94;10501212;28;20196;-68
2022/01/07 07:32:56;;;;;;;11.60;4.83;;;;;;;-2.57;100.00;100929.16;10500706;28;20212;-67
2022/01/07 07:38:00;;;;;;;12.33;4.43;;;;;;;-2.49;100.00;100912.66;10500806;28;20238;-68
2022/01/07 07:43:05;;;;;;;13.43;4.87;;;;;;;-2.36;100.00;100914.13;10500879;28;20646;-69
2022/01/07 07:48:08;;;;;;;15.23;5.10;;;;;;;-2.28;100.00;100912.84;10500544;28;20226;-68
2022/01/07 07:53:11;;;;;;;15.53;5.13;;;;;;;-2.07;100.00;100913.88;10500316;28;20220;-68
2022/01/07 07:58:16;;;;;;;16.50;4.93;;;;;;;-2.03;100.00;100905.63;10499883;28;20232;-69
2022/01/07 08:03:21;;;;;;;15.93;5.37;;;;;;;-1.75;100.00;100908.69;10504377;28;20319;-71
2022/01/07 08:08:24;;;;;;;13.70;5.53;;;;;;;-1.48;100.00;100891.28;10508667;28;20231;-70
2022/01/07 08:13:30;;;;;;;13.37;4.53;;;;;;;-1.45;100.00;100899.06;10508772;28;20216;-68
2022/01/07 08:18:35;;;;;;;15.23;5.40;;;;;;;-1.34;100.00;100908.03;10508553;28;20228;-71
2022/01/07 08:23:40;;;;;;;16.43;5.50;;;;;;;-1.21;100.00;100897.63;10508286;28;20218;-68
2022/01/07 08:28:49;;;;;;;13.53;5.90;;;;;;;-1.12;100.00;100897.19;10508038;28;20307;-65
2022/01/07 08:39:14;;;;;;;16.63;5.83;;;;;;;-0.64;100.00;100907.81;10507382;28;20596;-66
2022/01/07 08:44:19;;;;;;;14.17;5.80;;;;;;;-0.47;100.00;100906.00;10507322;28;20223;-67
2022/01/07 08:49:23;;;;;;;15.47;5.13;;;;;;;-0.41;99.68;100916.44;10507091;28;20231;-65
2022/01/07 08:54:26;;;;;;;14.43;5.63;;;;;;;-0.46;99.72;100918.81;10506608;28;20677;-71
2022/01/07 08:59:30;;;;;;;17.63;5.70;;;;;;;-0.32;98.07;100919.38;10506538;28;20230;-68
2022/01/07 09:04:34;;;;;;;17.50;7.60;;;;;;;-0.24;96.94;100911.25;10506570;28;20331;-65
2022/01/07 09:09:37;;;;;;;16.17;5.20;;;;;;;-0.02;96.80;100923.22;10506086;28;20612;-64
2022/01/07 09:14:43;;;;;;;14.87;5.17;;;;;;;0.24;94.61;100919.16;10505762;28;20662;-65
2022/01/07 09:19:46;;;;;;;18.43;6.10;;;;;;;0.15;93.23;100922.22;10505801;28;20220;-69
2022/01/07 09:24:50;;;;;;;13.93;5.63;;;;;;;0.19;93.41;100910.44;10505824;28;20315;-70
2022/01/07 09:29:54;;;;;;;13.10;5.53;;;;;;;0.24;92.74;100912.38;10505591;28;20728;-67
2022/01/07 09:34:57;;;;;;;16.00;5.30;;;;;;;0.25;91.10;100908.13;10505490;28;20215;-67
2022/01/07 09:40:01;;;;;;;12.57;4.90;;;;;;;0.32;90.50;100912.66;10504904;28;20231;-67
2022/01/07 09:45:07;;;;;;;16.80;5.57;;;;;;;0.46;89.24;100903.88;10504951;28;20267;-68
2022/01/07 09:50:10;;;;;;;12.73;5.07;;;;;;;0.62;87.91;100876.41;10504632;28;20224;-68
2022/01/07 09:55:14;;;;;;;13.60;5.50;;;;;;;0.72;87.46;100885.28;10504559;28;20220;-70
2022/01/07 10:00:18;;;;;;;15.18;6.43;;;;;;;0.83;86.61;100884.00;10502388;28;20431;-68
2022/01/07 10:05:22;;;;;;;13.10;5.50;;;;;;;0.92;83.61;100876.66;10501226;28;20234;-67
2022/01/07 10:10:27;;;;;;;16.80;5.50;;;;;;;1.02;83.46;100863.41;10500398;28;20231;-69
2022/01/07 10:15:33;;;;;;;18.40;6.20;;;;;;;1.27;79.96;100850.69;10146856;27;10000503;-70
2022/01/07 10:20:38;;;;;;;12.37;5.23;;;;;;;1.68;77.64;100850.41;10499962;28;20468;-69
2022/01/07 10:25:44;;;;;;;12.03;4.83;;;;;;;1.65;76.76;100850.31;10499900;28;20219;-70
2022/01/07 10:30:52;;;;;;;11.23;4.60;;;;;;;1.52;76.49;100853.25;10499985;28;20211;-71
2022/01/07 10:35:57;;;;;;;13.77;4.67;;;;;;;1.51;77.11;100859.19;10498380;28;20596;-72
2022/01/07 10:41:01;;;;;;;12.27;4.97;;;;;;;1.69;75.90;100861.50;10500388;28;20238;-69
2022/01/07 10:46:16;;;;;;;9.93;4.80;;;;;;;2.80;72.85;100844.50;10498819;28;20220;-69
2022/01/07 10:51:22;;;;;;;14.47;5.60;;;;;;;3.26;70.80;100844.09;10498796;28;20540;-68
2022/01/07 10:56:34;;;;;;;28.47;14.07;;;;;;;3.48;69.91;100839.56;10498724;28;20230;-69
2022/01/07 11:01:42;;;;;;;11.47;4.70;;;;;;;4.36;67.16;100841.69;10498230;28;20299;-62
2022/01/07 11:06:46;;;;;;;14.37;6.63;;;;;;;4.24;66.29;100841.41;10498358;28;20727;-67
2022/01/07 11:11:51;;;;;;;12.03;4.73;;;;;;;4.00;68.24;100848.56;10502707;28;20290;-68
2022/01/07 11:16:58;;;;;;;12.03;5.50;;;;;;;4.18;69.55;100836.13;10542252;28;20653;-66
2022/01/07 11:22:03;;;;;;;12.53;4.97;;;;;;;3.98;68.37;100852.78;10542650;28;20536;-68
2022/01/07 11:27:09;;;;;;;16.20;6.23;;;;;;;3.93;68.56;100824.44;10542070;28;20219;-69
2022/01/07 11:32:35;;;;;;;35.87;13.50;;;;;;;4.22;64.88;100835.38;10542453;28;20208;-65
2022/01/07 11:37:40;;;;;;;16.50;6.43;;;;;;;5.05;64.21;100835.47;10541775;28;20309;-70
2022/01/07 11:42:45;;;;;;;12.30;5.23;;;;;;;5.69;60.50;100829.78;10542512;28;20302;-69
2022/01/07 11:47:50;;;;;;;14.43;5.00;;;;;;;5.79;60.59;100831.66;10542397;28;20661;-69
2022/01/07 11:53:00;;;;;;;14.07;5.13;;;;;;;5.60;59.99;100824.47;10543327;28;20264;-65
2022/01/07 11:58:06;;;;;;;11.70;4.80;;;;;;;6.54;59.50;100813.94;10542178;28;20306;-70
2022/01/07 12:03:11;;;;;;;13.13;5.00;;;;;;;6.02;57.88;100814.91;10541750;28;20264;-66
2022/01/07 12:08:14;;;;;;;11.87;5.33;;;;;;;6.04;56.56;100810.63;10541936;28;20219;-67
2022/01/07 12:13:18;;;;;;;11.93;4.50;;;;;;;5.64;58.78;100816.81;10541995;28;20211;-65
2022/01/07 12:18:22;;;;;;;15.67;5.53;;;;;;;5.19;58.73;100805.72;10541621;28;20322;-66
2022/01/07 12:23:26;;;;;;;14.00;6.03;;;;;;;5.07;59.30;100799.47;10541662;28;20708;-69
2022/01/07 12:28:29;;;;;;;17.40;5.10;;;;;;;4.48;61.04;100800.84;10542404;28;20701;-66
2022/01/07 12:33:34;;;;;;;13.93;4.93;;;;;;;4.11;61.40;100806.00;10541578;28;20706;-66
2022/01/07 12:38:39;;;;;;;11.43;4.50;;;;;;;4.48;61.55;100786.31;10541337;28;20227;-69
2022/01/07 12:43:42;;;;;;;11.67;4.80;;;;;;;4.36;60.89;100783.47;10541222;28;20583;-66
2022/01/07 12:48:47;;;;;;;14.00;5.20;;;;;;;4.18;61.78;100788.22;10544021;28;20269;-67
2022/01/07 12:53:56;;;;;;;12.90;5.50;;;;;;;3.84;62.65;100788.28;10549196;28;20308;-67
2022/01/07 12:59:10;;;;;;;12.33;4.90;;;;;;;3.73;63.34;100782.00;10548677;28;20234;-67
2022/01/07 13:04:17;;;;;;;12.43;4.77;;;;;;;3.47;63.77;100783.94;10548179;28;20321;-68
2022/01/07 13:09:22;;;;;;;13.33;5.30;;;;;;;3.37;65.69;100789.69;10548343;28;20211;-67
2022/01/07 13:14:27;;;;;;;14.83;5.47;;;;;;;3.30;66.68;100786.91;10548295;28;20225;-66
2022/01/07 13:19:31;;;;;;;13.50;5.70;;;;;;;3.03;65.73;100797.31;10547998;28;20237;-69
2022/01/07 13:24:35;;;;;;;13.73;5.10;;;;;;;2.87;66.26;100794.28;10547865;28;20712;-64
2022/01/07 13:29:47;;;;;;;22.00;6.47;;;;;;;2.80;65.79;100793.25;10547623;28;20215;-64
2022/01/07 13:34:52;;;;;;;10.47;4.47;;;;;;;2.71;65.71;100789.59;10547237;28;20290;-64
2022/01/07 13:39:56;;;;;;;15.30;5.47;;;;;;;2.69;65.41;100799.78;10546876;28;20223;-67
2022/01/07 13:45:04;;;;;;;16.37;5.40;;;;;;;2.63;66.10;100788.47;10547609;28;20231;-68
2022/01/07 13:50:11;;;;;;;145.17;60.67;;;;;;;2.54;66.63;100785.69;10546478;28;20695;-65
2022/01/07 13:55:26;;;;;;;12.43;4.50;;;;;;;2.54;66.08;100778.84;10546478;28;20223;-66
2022/01/07 14:00:30;;;;;;;13.87;5.17;;;;;;;2.46;65.81;100792.25;10545057;28;20219;-72
2022/01/07 14:05:36;;;;;;;14.53;5.50;;;;;;;2.43;64.55;100780.25;10545657;28;20272;-65
2022/01/07 14:10:41;;;;;;;11.50;4.83;;;;;;;2.30;63.96;100779.00;10545628;28;20306;-68
2022/01/07 14:15:47;;;;;;;13.60;4.93;;;;;;;2.17;64.09;100774.31;10545353;28;20310;-69
2022/01/07 14:20:54;;;;;;;13.63;5.13;;;;;;;2.17;64.03;100771.78;10545438;28;20220;-65
2022/01/07 14:26:03;;;;;;;13.37;4.80;;;;;;;2.08;65.07;100775.75;10545282;28;20679;-67
2022/01/07 14:31:07;;;;;;;20.33;7.00;;;;;;;1.95;64.89;100771.94;10544951;28;20223;-71
2022/01/07 14:36:12;;;;;;;14.27;5.30;;;;;;;1.82;65.31;100764.72;10544559;28;20298;-67
2022/01/07 14:41:15;;;;;;;12.50;4.40;;;;;;;1.71;65.42;100763.50;10544355;28;20716;-67
2022/01/07 14:46:18;;;;;;;13.03;5.50;;;;;;;1.64;65.72;100773.53;10544655;28;20302;-67
2022/01/07 14:51:23;;;;;;;14.50;5.30;;;;;;;1.59;65.15;100767.41;10544478;28;20314;-67
2022/01/07 14:56:26;;;;;;;11.90;5.00;;;;;;;1.53;65.91;100767.19;10544129;28;20299;-66
2022/01/07 15:01:32;;;;;;;14.17;5.90;;;;;;;1.48;66.92;100773.84;10543529;28;20280;-66
2022/01/07 15:06:36;;;;;;;14.53;5.07;;;;;;;1.38;67.00;100764.13;10543575;28;20686;-65
2022/01/07 15:11:40;;;;;;;16.00;5.57;;;;;;;1.28;67.43;100762.94;10543063;28;20725;-68
2022/01/07 15:16:47;;;;;;;16.73;6.30;;;;;;;1.22;68.07;100767.00;10543000;28;20248;-66
2022/01/07 15:21:53;;;;;;;15.47;5.50;;;;;;;1.15;68.78;100771.03;10542996;28;20223;-69
2022/01/07 15:26:57;;;;;;;13.87;5.67;;;;;;;1.10;68.68;100770.00;10540658;28;20215;-66
2022/01/07 15:32:00;;;;;;;16.30;6.47;;;;;;;1.02;69.53;100781.63;10538535;28;20311;-68
2022/01/07 15:37:07;;;;;;;15.50;6.80;;;;;;;0.95;70.68;100778.00;10538733;28;20223;-69
2022/01/07 15:42:10;;;;;;;13.60;6.30;;;;;;;0.92;70.35;100775.34;10539233;28;20253;-66
2022/01/07 15:47:13;;;;;;;15.93;6.63;;;;;;;0.88;70.15;100775.22;10542295;28;20306;-65
2022/01/07 15:52:20;;;;;;;21.03;8.10;;;;;;;0.88;70.33;100780.31;10542331;28;20223;-70
2022/01/07 15:57:24;;;;;;;14.40;6.77;;;;;;;0.82;70.61;100774.97;10542096;28;20219;-67
2022/01/07 16:02:27;;;;;;;17.97;6.93;;;;;;;0.86;69.72;100771.72;10541841;28;20239;-65
2022/01/07 16:07:32;;;;;;;18.60;7.30;;;;;;;0.85;69.54;100781.06;10541903;28;20211;-68
2022/01/07 16:12:35;;;;;;;22.87;9.37;;;;;;;0.82;69.72;100770.75;10538999;28;20234;-67
2022/01/07 16:17:39;;;;;;;18.80;7.10;;;;;;;0.78;70.36;100775.69;10539594;28;20222;-66
2022/01/07 16:22:45;;;;;;;20.27;8.87;;;;;;;0.78;70.56;100775.69;10541325;28;20237;-64
2022/01/07 16:27:49;;;;;;;17.97;7.27;;;;;;;0.70;70.90;100772.88;10495677;28;20675;-62
2022/01/07 16:32:52;;;;;;;17.67;7.43;;;;;;;0.63;72.03;100770.03;10488462;28;20218;-60
2022/01/07 16:37:57;;;;;;;16.73;7.47;;;;;;;0.66;71.54;100763.34;10502462;28;20220;-70
2022/01/07 16:43:01;;;;;;;19.37;8.73;;;;;;;0.62;71.63;100764.06;10486205;28;20311;-66
2022/01/07 16:48:05;;;;;;;20.30;7.70;;;;;;;0.60;72.95;100764.81;10504628;28;20301;-66
2022/01/07 16:53:10;;;;;;;20.03;8.27;;;;;;;0.56;72.49;100761.28;10506252;28;20220;-64
2022/01/07 16:58:15;;;;;;;21.90;8.40;;;;;;;0.53;72.87;100762.88;10505694;28;20220;-63
2022/01/07 17:03:18;;;;;;;25.03;8.43;;;;;;;0.54;74.29;100767.13;10505945;28;20238;-67
2022/01/07 17:08:26;;;;;;;19.33;8.80;;;;;;;0.50;73.77;100763.59;10505297;28;20224;-65
2022/01/07 17:13:29;;;;;;;22.77;10.27;;;;;;;0.43;73.87;100755.69;10505396;28;20745;-64
2022/01/07 17:18:32;;;;;;;21.50;9.63;;;;;;;0.38;74.39;100757.22;10505667;28;20661;-64
2022/01/07 17:23:37;;;;;;;20.63;8.97;;;;;;;0.33;74.61;100746.81;10505310;28;20299;-65
2022/01/07 17:28:40;;;;;;;28.30;10.57;;;;;;;0.39;74.66;100746.16;10504717;28;20654;-65
2022/01/07 17:33:44;;;;;;;26.43;10.40;;;;;;;0.30;74.40;100745.84;10503603;28;20220;-64
2022/01/07 17:38:48;;;;;;;25.23;10.10;;;;;;;0.29;74.79;100739.00;10502938;28;20226;-66
2022/01/07 17:43:57;;;;;;;28.10;11.10;;;;;;;0.25;74.36;100737.13;10502657;28;20307;-67
2022/01/07 17:49:00;;;;;;;28.53;11.03;;;;;;;0.17;74.22;100725.78;10504314;28;20220;-67
2022/01/07 17:54:05;;;;;;;24.53;10.83;;;;;;;0.10;74.92;100734.03;10503657;28;20222;-67
2022/01/07 17:59:08;;;;;;;24.47;10.30;;;;;;;0.09;74.84;100733.16;10503685;28;20220;-66
2022/01/07 18:04:11;;;;;;;28.00;11.67;;;;;;;0.07;74.55;100736.47;10503896;28;20246;-65
2022/01/07 18:09:16;;;;;;;24.73;10.43;;;;;;;0.02;75.24;100733.72;10503385;28;20230;-66
2022/01/07 18:14:20;;;;;;;26.30;11.00;;;;;;;-0.03;74.83;100718.25;10502471;28;20665;-68
2022/01/07 18:19:24;;;;;;;27.27;10.67;;;;;;;-0.02;74.57;100725.09;10501927;28;20238;-66
2022/01/07 18:24:28;;;;;;;22.33;9.73;;;;;;;-0.05;74.59;100722.44;10502886;28;20216;-68
2022/01/07 18:29:31;;;;;;;24.20;11.87;;;;;;;-0.03;74.99;100718.25;10502580;28;20299;-67
2022/01/07 18:34:35;;;;;;;28.17;11.47;;;;;;;-0.02;75.09;100719.16;10502417;28;20270;-65
2022/01/07 18:39:40;;;;;;;24.67;10.50;;;;;;;-0.07;75.28;100715.56;10502111;28;20708;-71
2022/01/07 18:44:44;;;;;;;241.27;102.70;;;;;;;-0.02;75.53;100714.03;10501713;28;20638;-65
2022/01/07 18:49:47;;;;;;;24.30;10.33;;;;;;;-0.07;75.75;100708.75;10502051;28;20197;-66
2022/01/07 18:54:52;;;;;;;26.33;11.77;;;;;;;-0.04;75.87;100706.34;10501057;28;20559;-65
2022/01/07 18:59:56;;;;;;;29.60;11.80;;;;;;;-0.07;75.62;100702.81;10501805;28;20220;-68
2022/01/07 19:04:59;;;;;;;27.63;11.43;;;;;;;-0.02;76.29;100686.81;10500581;28;20315;-66
2022/01/07 19:10:04;;;;;;;27.23;12.40;;;;;;;-0.05;76.03;100683.28;10501305;28;20275;-66
2022/01/07 19:15:09;;;;;;;28.07;10.40;;;;;;;-0.14;75.72;100694.03;10501214;28;20192;-68
2022/01/07 19:20:12;;;;;;;27.27;10.33;;;;;;;-0.10;75.67;100687.34;10499983;28;20216;-66
2022/01/07 19:25:17;;;;;;;23.07;10.57;;;;;;;-0.11;75.06;100678.88;10500591;28;20677;-67
2022/01/07 19:30:20;;;;;;;27.07;10.83;;;;;;;-0.06;74.45;100676.47;10499463;28;20219;-66
2022/01/07 19:35:24;;;;;;;24.43;9.57;;;;;;;-0.07;73.31;100674.75;10497794;28;20302;-67
2022/01/07 19:40:28;;;;;;;22.43;8.70;;;;;;;-0.01;72.33;100680.06;10499916;28;20227;-64
2022/01/07 19:45:32;;;;;;;24.30;9.43;;;;;;;-0.02;71.25;100674.06;10499495;28;20212;-68
2022/01/07 19:50:37;;;;;;;21.87;9.40;;;;;;;0.03;70.32;100673.38;10499917;28;20227;-65
2022/01/07 19:55:42;;;;;;;23.23;9.50;;;;;;;0.05;70.18;100681.97;10499465;28;20222;-66
2022/01/07 20:00:45;;;;;;;23.70;8.70;;;;;;;0.04;70.01;100678.53;10176105;27;9999635;-64
2022/01/07 20:05:49;;;;;;;24.40;8.60;;;;;;;-0.01;69.18;100680.94;10545756;28;20235;-69
2022/01/07 20:10:53;;;;;;;23.37;9.73;;;;;;;0.03;69.34;100678.50;10547143;28;20223;-66
2022/01/07 20:16:00;;;;;;;19.73;9.80;;;;;;;0.02;69.15;100671.66;10546498;28;20502;-66
2022/01/07 20:21:03;;;;;;;25.50;8.93;;;;;;;0.03;68.65;100666.59;10546685;28;20306;-63
2022/01/07 20:26:08;;;;;;;25.03;9.93;;;;;;;0.12;68.35;100663.53;10546423;28;20692;-64
2022/01/07 20:31:11;;;;;;;25.60;10.40;;;;;;;0.04;68.85;100665.78;10526352;28;20220;-68
2022/01/07 20:36:15;;;;;;;31.10;11.20;;;;;;;0.06;68.72;100674.38;10503612;28;20608;-65
2022/01/07 20:41:20;;;;;;;30.50;10.67;;;;;;;0.07;69.20;100685.44;10497105;28;20569;-67
2022/01/07 20:46:24;;;;;;;28.27;10.87;;;;;;;0.00;68.92;100675.00;10503627;28;20216;-67
2022/01/07 20:51:27;;;;;;;23.60;10.73;;;;;;;0.07;68.80;100672.69;10502905;28;20220;-64
2022/01/07 20:56:32;;;;;;;26.13;10.37;;;;;;;0.03;68.27;100670.84;10503642;28;20216;-64
2022/01/07 21:01:35;;;;;;;24.27;10.17;;;;;;;-0.02;69.17;100665.56;10534422;28;20219;-65
2022/01/07 21:06:39;;;;;;;19.63;9.07;;;;;;;-0.02;69.18;100666.41;10544941;28;20236;-66
2022/01/07 21:11:44;;;;;;;23.90;9.37;;;;;;;-0.03;68.51;100659.59;10544169;28;20227;-67
2022/01/07 21:16:47;;;;;;;25.03;9.10;;;;;;;0.07;67.69;100652.28;10544616;28;20298;-67
2022/01/07 21:21:55;;;;;;;29.20;9.87;;;;;;;0.16;66.73;100644.94;10543638;28;20234;-71
2022/01/07 21:27:00;;;;;;;24.10;8.60;;;;;;;0.06;65.57;100637.78;10544462;28;20294;-71
2022/01/07 21:32:04;;;;;;;20.00;8.60;;;;;;;0.08;66.46;100642.13;10515819;28;20212;-66
2022/01/07 21:37:07;;;;;;;22.80;8.83;;;;;;;0.22;65.17;100642.63;10495704;28;20231;-68
2022/01/07 21:42:12;;;;;;;21.80;10.00;;;;;;;0.21;65.02;100646.00;10476387;28;20239;-67
2022/01/07 21:47:15;;;;;;;20.63;8.80;;;;;;;0.17;65.38;100645.03;10483269;28;20217;-65
2022/01/07 21:52:18;;;;;;;22.47;9.73;;;;;;;0.09;64.72;100637.91;10467500;28;20232;-64
2022/01/07 21:57:23;;;;;;;21.27;9.20;;;;;;;0.05;65.24;100638.59;10488931;28;20208;-66
2022/01/07 22:02:27;;;;;;;25.40;10.20;;;;;;;-0.10;66.35;100634.69;10541070;28;20227;-69
2022/01/07 22:07:30;;;;;;;20.97;9.00;;;;;;;-0.13;67.72;100638.78;10544795;28;20602;-67
2022/01/07 22:12:35;;;;;;;22.10;8.87;;;;;;;-0.12;68.55;100638.84;10537108;28;20669;-72
2022/01/07 22:17:38;;;;;;;24.43;9.43;;;;;;;-0.12;68.29;100635.41;10500891;28;20248;-68
2022/01/07 22:22:42;;;;;;;21.77;10.07;;;;;;;-0.12;68.72;100643.94;10501457;28;20315;-65
2022/01/07 22:27:46;;;;;;;21.67;9.90;;;;;;;-0.28;68.97;100645.88;10501967;28;20554;-65
2022/01/07 22:32:49;;;;;;;24.80;11.00;;;;;;;-0.35;69.04;100644.81;10502733;28;20224;-71
2022/01/07 22:37:54;;;;;;;28.13;11.70;;;;;;;-0.40;69.32;100647.97;10502144;28;20220;-67
2022/01/07 22:42:59;;;;;;;24.07;10.70;;;;;;;-0.44;69.69;100635.91;10502401;28;20234;-68
2022/01/07 22:48:22;;;;;;;24.60;10.70;;;;;;;-0.48;70.06;100640.03;10502327;28;20228;-69
2022/01/07 22:53:27;;;;;;;27.43;11.27;;;;;;;-0.51;69.98;100632.28;10501211;28;20303;-70
2022/01/07 22:58:32;;;;;;;31.23;10.27;;;;;;;-0.54;70.08;100633.84;10501078;28;20230;-67
2022/01/07 23:03:35;;;;;;;25.83;11.33;;;;;;;-0.57;70.24;100629.47;10527935;28;20692;-69
2022/01/07 23:08:44;;;;;;;24.43;11.47;;;;;;;-0.58;69.99;100634.53;10540033;28;20223;-67